sensor_id;sensor_type;location;lat;lon;timestamp;P1;durP1;ratioP1;P2;durP2;ratioP2
12328;SDS011;6230;52.390;10.256;2023-03-26T00:00:52;6.13;;;4.67;;
12328;SDS011;6230;52.390;10.256;2023-03-26T00:03:20;6.70;;;5.80;;
12328;SDS011;6230;52.390;10.256;2023-03-26T00:05:46;9.07;;;6.73;;
12328;SDS011;6230;52.390;10.256;2023-03-26T00:08:12;16.20;;;14.53;;
12328;SDS011;6230;52.390;10.256;2023-03-26T00:10:40;7.97;;;5.20;;
12328;SDS011;6230;52.390;10.256;2023-03-26T00:13:06;5.53;;;5.03;;
12328;SDS011;6230;52.390;10.256;2023-03-26T00:15:33;9.10;;;6.80;;
12328;SDS011;6230;52.390;10.256;2023-03-26T00:18:00;7.60;;;5.77;;
12328;SDS011;6230;52.390;10.256;2023-03-26T00:20:26;9.37;;;6.67;;
12328;SDS011;6230;52.390;10.256;2023-03-26T00:22:53;9.00;;;8.23;;
12328;SDS011;6230;52.390;10.256;2023-03-26T00:25:20;8.60;;;5.10;;
12328;SDS011;6230;52.390;10.256;2023-03-26T00:27:47;9.50;;;5.60;;
12328;SDS011;6230;52.390;10.256;2023-03-26T00:30:14;8.90;;;6.67;;
12328;SDS011;6230;52.390;10.256;2023-03-26T00:32:40;13.83;;;5.83;;
12328;SDS011;6230;52.390;10.256;2023-03-26T00:35:06;6.17;;;5.30;;
12328;SDS011;6230;52.390;10.256;2023-03-26T00:37:32;7.47;;;5.37;;
12328;SDS011;6230;52.390;10.256;2023-03-26T00:39:57;6.33;;;5.37;;
12328;SDS011;6230;52.390;10.256;2023-03-26T00:42:26;11.87;;;9.00;;
12328;SDS011;6230;52.390;10.256;2023-03-26T00:44:53;16.97;;;15.30;;
12328;SDS011;6230;52.390;10.256;2023-03-26T00:47:24;10.87;;;6.30;;
12328;SDS011;6230;52.390;10.256;2023-03-26T00:49:53;8.40;;;5.70;;
12328;SDS011;6230;52.390;10.256;2023-03-26T00:52:20;14.53;;;13.17;;
12328;SDS011;6230;52.390;10.256;2023-03-26T00:54:46;9.73;;;6.73;;
12328;SDS011;6230;52.390;10.256;2023-03-26T00:57:12;9.83;;;6.87;;
12328;SDS011;6230;52.390;10.256;2023-03-26T00:59:38;10.37;;;7.33;;
12328;SDS011;6230;52.390;10.256;2023-03-26T01:02:05;11.37;;;6.60;;
12328;SDS011;6230;52.390;10.256;2023-03-26T01:04:34;13.10;;;8.87;;
12328;SDS011;6230;52.390;10.256;2023-03-26T01:07:08;9.30;;;5.83;;
12328;SDS011;6230;52.390;10.256;2023-03-26T01:09:38;16.63;;;9.90;;
12328;SDS011;6230;52.390;10.256;2023-03-26T01:12:10;6.50;;;5.43;;
12328;SDS011;6230;52.390;10.256;2023-03-26T01:14:41;18.67;;;16.50;;
12328;SDS011;6230;52.390;10.256;2023-03-26T01:17:07;10.50;;;6.90;;
12328;SDS011;6230;52.390;10.256;2023-03-26T01:22:07;8.80;;;4.90;;
12328;SDS011;6230;52.390;10.256;2023-03-26T01:24:36;7.93;;;5.53;;
12328;SDS011;6230;52.390;10.256;2023-03-26T01:32:12;6.40;;;4.17;;
12328;SDS011;6230;52.390;10.256;2023-03-26T01:40:24;7.93;;;3.30;;
12328;SDS011;6230;52.390;10.256;2023-03-26T01:42:54;5.60;;;3.53;;
12328;SDS011;6230;52.390;10.256;2023-03-26T01:45:27;4.87;;;3.37;;
12328;SDS011;6230;52.390;10.256;2023-03-26T01:47:57;5.73;;;3.77;;
12328;SDS011;6230;52.390;10.256;2023-03-26T01:50:23;5.87;;;3.30;;
12328;SDS011;6230;52.390;10.256;2023-03-26T01:52:49;6.60;;;3.57;;
12328;SDS011;6230;52.390;10.256;2023-03-26T01:55:15;5.03;;;4.20;;
12328;SDS011;6230;52.390;10.256;2023-03-26T02:00:14;5.10;;;2.77;;
12328;SDS011;6230;52.390;10.256;2023-03-26T02:06:04;4.30;;;2.67;;
12328;SDS011;6230;52.390;10.256;2023-03-26T02:08:40;4.47;;;3.43;;
12328;SDS011;6230;52.390;10.256;2023-03-26T02:11:12;4.80;;;3.90;;
12328;SDS011;6230;52.390;10.256;2023-03-26T02:13:39;5.00;;;2.70;;
12328;SDS011;6230;52.390;10.256;2023-03-26T02:16:09;6.60;;;3.07;;
12328;SDS011;6230;52.390;10.256;2023-03-26T02:18:40;5.67;;;2.63;;
12328;SDS011;6230;52.390;10.256;2023-03-26T02:21:11;4.23;;;2.73;;
12328;SDS011;6230;52.390;10.256;2023-03-26T02:23:44;5.13;;;2.67;;
12328;SDS011;6230;52.390;10.256;2023-03-26T02:26:12;8.13;;;2.90;;
12328;SDS011;6230;52.390;10.256;2023-03-26T02:28:40;5.77;;;2.37;;
12328;SDS011;6230;52.390;10.256;2023-03-26T02:31:05;7.27;;;3.80;;
12328;SDS011;6230;52.390;10.256;2023-03-26T02:33:33;6.00;;;2.80;;
12328;SDS011;6230;52.390;10.256;2023-03-26T02:35:59;7.97;;;4.13;;
12328;SDS011;6230;52.390;10.256;2023-03-26T02:38:28;4.83;;;2.23;;
12328;SDS011;6230;52.390;10.256;2023-03-26T02:40:58;3.83;;;2.63;;
12328;SDS011;6230;52.390;10.256;2023-03-26T02:43:25;6.50;;;3.10;;
12328;SDS011;6230;52.390;10.256;2023-03-26T02:45:50;5.63;;;2.53;;
12328;SDS011;6230;52.390;10.256;2023-03-26T02:48:16;6.43;;;2.60;;
12328;SDS011;6230;52.390;10.256;2023-03-26T02:50:42;4.27;;;2.40;;
12328;SDS011;6230;52.390;10.256;2023-03-26T02:53:08;4.17;;;2.63;;
12328;SDS011;6230;52.390;10.256;2023-03-26T02:55:34;4.20;;;2.57;;
12328;SDS011;6230;52.390;10.256;2023-03-26T02:57:59;5.43;;;2.10;;
12328;SDS011;6230;52.390;10.256;2023-03-26T03:00:25;5.37;;;2.10;;
12328;SDS011;6230;52.390;10.256;2023-03-26T03:02:51;5.50;;;2.33;;
12328;SDS011;6230;52.390;10.256;2023-03-26T03:05:18;5.53;;;2.07;;
12328;SDS011;6230;52.390;10.256;2023-03-26T03:07:44;4.17;;;2.40;;
12328;SDS011;6230;52.390;10.256;2023-03-26T03:10:11;5.33;;;2.23;;
12328;SDS011;6230;52.390;10.256;2023-03-26T03:12:40;5.13;;;2.60;;
12328;SDS011;6230;52.390;10.256;2023-03-26T03:15:06;6.63;;;2.70;;
12328;SDS011;6230;52.390;10.256;2023-03-26T03:17:33;5.97;;;2.50;;
12328;SDS011;6230;52.390;10.256;2023-03-26T03:19:58;4.13;;;1.80;;
12328;SDS011;6230;52.390;10.256;2023-03-26T03:22:24;6.37;;;2.37;;
12328;SDS011;6230;52.390;10.256;2023-03-26T03:24:49;3.13;;;2.20;;
12328;SDS011;6230;52.390;10.256;2023-03-26T03:27:21;3.67;;;2.10;;
12328;SDS011;6230;52.390;10.256;2023-03-26T03:29:50;2.47;;;2.20;;
12328;SDS011;6230;52.390;10.256;2023-03-26T03:32:17;5.90;;;2.60;;
12328;SDS011;6230;52.390;10.256;2023-03-26T03:34:43;5.33;;;2.10;;
12328;SDS011;6230;52.390;10.256;2023-03-26T03:37:09;4.60;;;2.67;;
12328;SDS011;6230;52.390;10.256;2023-03-26T03:39:34;4.23;;;2.13;;
12328;SDS011;6230;52.390;10.256;2023-03-26T03:42:00;4.87;;;2.57;;
12328;SDS011;6230;52.390;10.256;2023-03-26T03:44:25;5.03;;;3.07;;
12328;SDS011;6230;52.390;10.256;2023-03-26T03:46:51;3.67;;;2.13;;
12328;SDS011;6230;52.390;10.256;2023-03-26T03:49:19;3.80;;;2.07;;
12328;SDS011;6230;52.390;10.256;2023-03-26T03:51:45;4.73;;;2.43;;
12328;SDS011;6230;52.390;10.256;2023-03-26T03:54:11;4.27;;;2.13;;
12328;SDS011;6230;52.390;10.256;2023-03-26T03:56:36;5.53;;;2.33;;
12328;SDS011;6230;52.390;10.256;2023-03-26T03:59:03;7.40;;;2.37;;
12328;SDS011;6230;52.390;10.256;2023-03-26T04:01:28;3.87;;;2.77;;
12328;SDS011;6230;52.390;10.256;2023-03-26T04:03:55;5.53;;;2.87;;
12328;SDS011;6230;52.390;10.256;2023-03-26T04:06:20;3.60;;;2.50;;
12328;SDS011;6230;52.390;10.256;2023-03-26T04:08:49;5.03;;;2.80;;
12328;SDS011;6230;52.390;10.256;2023-03-26T04:11:15;3.97;;;2.13;;
12328;SDS011;6230;52.390;10.256;2023-03-26T04:13:40;2.73;;;1.83;;
12328;SDS011;6230;52.390;10.256;2023-03-26T04:16:07;3.87;;;2.03;;
12328;SDS011;6230;52.390;10.256;2023-03-26T04:18:33;8.03;;;2.53;;
12328;SDS011;6230;52.390;10.256;2023-03-26T04:21:00;4.37;;;2.30;;
12328;SDS011;6230;52.390;10.256;2023-03-26T04:23:26;4.73;;;2.23;;
12328;SDS011;6230;52.390;10.256;2023-03-26T04:25:53;6.90;;;2.17;;
12328;SDS011;6230;52.390;10.256;2023-03-26T04:30:54;4.73;;;2.30;;
12328;SDS011;6230;52.390;10.256;2023-03-26T04:33:21;4.17;;;1.93;;
12328;SDS011;6230;52.390;10.256;2023-03-26T04:35:48;5.10;;;2.10;;
12328;SDS011;6230;52.390;10.256;2023-03-26T04:38:15;4.60;;;2.00;;
12328;SDS011;6230;52.390;10.256;2023-03-26T04:40:41;3.03;;;2.00;;
12328;SDS011;6230;52.390;10.256;2023-03-26T04:43:11;3.93;;;2.00;;
12328;SDS011;6230;52.390;10.256;2023-03-26T04:45:40;3.97;;;2.00;;
12328;SDS011;6230;52.390;10.256;2023-03-26T04:48:06;3.20;;;1.87;;
12328;SDS011;6230;52.390;10.256;2023-03-26T04:50:38;5.07;;;2.00;;
12328;SDS011;6230;52.390;10.256;2023-03-26T04:53:05;7.43;;;1.83;;
12328;SDS011;6230;52.390;10.256;2023-03-26T04:55:37;4.57;;;1.80;;
12328;SDS011;6230;52.390;10.256;2023-03-26T04:58:07;6.30;;;2.13;;
12328;SDS011;6230;52.390;10.256;2023-03-26T05:00:33;6.10;;;2.20;;
12328;SDS011;6230;52.390;10.256;2023-03-26T05:02:59;4.23;;;2.33;;
12328;SDS011;6230;52.390;10.256;2023-03-26T05:05:25;6.13;;;2.27;;
12328;SDS011;6230;52.390;10.256;2023-03-26T05:07:52;6.20;;;2.53;;
12328;SDS011;6230;52.390;10.256;2023-03-26T05:10:19;4.67;;;2.43;;
12328;SDS011;6230;52.390;10.256;2023-03-26T05:12:45;4.70;;;2.37;;
12328;SDS011;6230;52.390;10.256;2023-03-26T05:15:11;4.43;;;2.80;;
12328;SDS011;6230;52.390;10.256;2023-03-26T05:17:38;3.93;;;2.60;;
12328;SDS011;6230;52.390;10.256;2023-03-26T05:20:09;4.33;;;2.43;;
12328;SDS011;6230;52.390;10.256;2023-03-26T05:22:40;4.50;;;2.60;;
12328;SDS011;6230;52.390;10.256;2023-03-26T05:25:07;6.13;;;2.53;;
12328;SDS011;6230;52.390;10.256;2023-03-26T05:27:32;3.67;;;2.40;;
12328;SDS011;6230;52.390;10.256;2023-03-26T05:30:02;5.07;;;2.57;;
12328;SDS011;6230;52.390;10.256;2023-03-26T05:32:29;5.20;;;2.50;;
12328;SDS011;6230;52.390;10.256;2023-03-26T05:34:55;3.93;;;3.37;;
12328;SDS011;6230;52.390;10.256;2023-03-26T05:37:21;4.00;;;2.60;;
12328;SDS011;6230;52.390;10.256;2023-03-26T05:39:51;4.63;;;3.63;;
12328;SDS011;6230;52.390;10.256;2023-03-26T05:42:20;7.80;;;2.50;;
12328;SDS011;6230;52.390;10.256;2023-03-26T05:44:46;9.83;;;3.00;;
12328;SDS011;6230;52.390;10.256;2023-03-26T05:47:11;4.63;;;2.70;;
12328;SDS011;6230;52.390;10.256;2023-03-26T05:49:37;4.33;;;2.93;;
12328;SDS011;6230;52.390;10.256;2023-03-26T05:52:02;5.67;;;2.80;;
12328;SDS011;6230;52.390;10.256;2023-03-26T05:54:28;3.73;;;2.57;;
12328;SDS011;6230;52.390;10.256;2023-03-26T05:56:53;11.73;;;2.90;;
12328;SDS011;6230;52.390;10.256;2023-03-26T05:59:20;7.20;;;2.70;;
12328;SDS011;6230;52.390;10.256;2023-03-26T06:01:47;7.40;;;2.83;;
12328;SDS011;6230;52.390;10.256;2023-03-26T06:04:14;4.83;;;2.50;;
12328;SDS011;6230;52.390;10.256;2023-03-26T06:06:41;4.33;;;2.10;;
12328;SDS011;6230;52.390;10.256;2023-03-26T06:09:09;5.70;;;2.93;;
12328;SDS011;6230;52.390;10.256;2023-03-26T06:11:37;5.00;;;2.30;;
12328;SDS011;6230;52.390;10.256;2023-03-26T06:14:03;4.00;;;2.50;;
12328;SDS011;6230;52.390;10.256;2023-03-26T06:16:29;6.50;;;2.93;;
12328;SDS011;6230;52.390;10.256;2023-03-26T06:18:55;4.73;;;3.20;;
12328;SDS011;6230;52.390;10.256;2023-03-26T06:21:21;4.37;;;2.93;;
12328;SDS011;6230;52.390;10.256;2023-03-26T06:23:46;8.13;;;2.93;;
12328;SDS011;6230;52.390;10.256;2023-03-26T06:26:13;7.47;;;3.37;;
12328;SDS011;6230;52.390;10.256;2023-03-26T06:28:39;5.90;;;3.80;;
12328;SDS011;6230;52.390;10.256;2023-03-26T06:31:04;7.67;;;4.23;;
12328;SDS011;6230;52.390;10.256;2023-03-26T06:33:30;7.70;;;4.37;;
12328;SDS011;6230;52.390;10.256;2023-03-26T06:35:57;5.63;;;4.43;;
12328;SDS011;6230;52.390;10.256;2023-03-26T06:38:23;9.17;;;4.57;;
12328;SDS011;6230;52.390;10.256;2023-03-26T06:40:48;8.87;;;4.90;;
12328;SDS011;6230;52.390;10.256;2023-03-26T06:43:14;7.77;;;5.63;;
12328;SDS011;6230;52.390;10.256;2023-03-26T06:45:40;7.97;;;4.77;;
12328;SDS011;6230;52.390;10.256;2023-03-26T06:48:05;8.07;;;4.83;;
12328;SDS011;6230;52.390;10.256;2023-03-26T06:50:32;5.90;;;4.20;;
12328;SDS011;6230;52.390;10.256;2023-03-26T06:52:58;8.37;;;3.80;;
12328;SDS011;6230;52.390;10.256;2023-03-26T06:55:23;5.03;;;3.50;;
12328;SDS011;6230;52.390;10.256;2023-03-26T06:57:50;7.53;;;3.53;;
12328;SDS011;6230;52.390;10.256;2023-03-26T07:00:17;7.57;;;3.30;;
12328;SDS011;6230;52.390;10.256;2023-03-26T07:02:43;5.60;;;2.63;;
12328;SDS011;6230;52.390;10.256;2023-03-26T07:05:09;7.33;;;3.30;;
12328;SDS011;6230;52.390;10.256;2023-03-26T07:07:35;7.90;;;2.63;;
12328;SDS011;6230;52.390;10.256;2023-03-26T07:10:02;5.53;;;2.70;;
12328;SDS011;6230;52.390;10.256;2023-03-26T07:12:27;5.33;;;3.23;;
12328;SDS011;6230;52.390;10.256;2023-03-26T07:14:53;4.90;;;3.00;;
12328;SDS011;6230;52.390;10.256;2023-03-26T07:17:18;4.17;;;3.00;;
12328;SDS011;6230;52.390;10.256;2023-03-26T07:19:44;5.43;;;2.77;;
12328;SDS011;6230;52.390;10.256;2023-03-26T07:22:12;7.00;;;2.90;;
12328;SDS011;6230;52.390;10.256;2023-03-26T07:24:42;4.33;;;2.83;;
12328;SDS011;6230;52.390;10.256;2023-03-26T07:35:41;4.83;;;3.50;;
12328;SDS011;6230;52.390;10.256;2023-03-26T07:40:45;3.70;;;2.50;;
12328;SDS011;6230;52.390;10.256;2023-03-26T07:45:55;5.03;;;3.23;;
12328;SDS011;6230;52.390;10.256;2023-03-26T07:48:22;5.37;;;2.87;;
12328;SDS011;6230;52.390;10.256;2023-03-26T07:50:51;4.47;;;3.13;;
12328;SDS011;6230;52.390;10.256;2023-03-26T07:53:17;5.57;;;2.80;;
12328;SDS011;6230;52.390;10.256;2023-03-26T07:55:52;8.23;;;3.83;;
12328;SDS011;6230;52.390;10.256;2023-03-26T07:59:00;6.07;;;3.30;;
12328;SDS011;6230;52.390;10.256;2023-03-26T08:04:33;10.63;;;3.10;;
12328;SDS011;6230;52.390;10.256;2023-03-26T08:07:12;5.57;;;2.87;;
12328;SDS011;6230;52.390;10.256;2023-03-26T08:12:46;4.03;;;2.70;;
12328;SDS011;6230;52.390;10.256;2023-03-26T08:21:03;6.23;;;2.70;;
12328;SDS011;6230;52.390;10.256;2023-03-26T08:23:46;5.10;;;2.47;;
12328;SDS011;6230;52.390;10.256;2023-03-26T08:31:53;6.80;;;2.83;;
12328;SDS011;6230;52.390;10.256;2023-03-26T08:34:21;6.03;;;2.97;;
12328;SDS011;6230;52.390;10.256;2023-03-26T08:36:47;6.27;;;2.97;;
12328;SDS011;6230;52.390;10.256;2023-03-26T08:39:13;9.07;;;3.20;;
12328;SDS011;6230;52.390;10.256;2023-03-26T08:44:57;7.13;;;2.40;;
12328;SDS011;6230;52.390;10.256;2023-03-26T09:02:29;5.10;;;2.53;;
12328;SDS011;6230;52.390;10.256;2023-03-26T09:05:14;7.40;;;3.47;;
12328;SDS011;6230;52.390;10.256;2023-03-26T09:08:07;5.43;;;2.93;;
12328;SDS011;6230;52.390;10.256;2023-03-26T09:10:51;7.93;;;3.43;;
12328;SDS011;6230;52.390;10.256;2023-03-26T09:24:48;5.53;;;3.63;;
12328;SDS011;6230;52.390;10.256;2023-03-26T09:27:38;6.63;;;3.53;;
12328;SDS011;6230;52.390;10.256;2023-03-26T09:30:30;9.47;;;3.97;;
12328;SDS011;6230;52.390;10.256;2023-03-26T09:36:07;9.33;;;3.80;;
12328;SDS011;6230;52.390;10.256;2023-03-26T09:41:40;9.10;;;5.23;;
12328;SDS011;6230;52.390;10.256;2023-03-26T09:44:45;13.53;;;3.90;;
12328;SDS011;6230;52.390;10.256;2023-03-26T09:47:41;4.07;;;2.87;;
12328;SDS011;6230;52.390;10.256;2023-03-26T10:05:27;10.23;;;3.97;;
12328;SDS011;6230;52.390;10.256;2023-03-26T10:10:42;6.13;;;3.93;;
12328;SDS011;6230;52.390;10.256;2023-03-26T10:16:05;7.33;;;3.90;;
12328;SDS011;6230;52.390;10.256;2023-03-26T10:21:28;8.60;;;3.60;;
12328;SDS011;6230;52.390;10.256;2023-03-26T10:27:28;6.90;;;3.67;;
12328;SDS011;6230;52.390;10.256;2023-03-26T10:36:41;7.43;;;3.47;;
12328;SDS011;6230;52.390;10.256;2023-03-26T10:39:29;6.37;;;4.23;;
12328;SDS011;6230;52.390;10.256;2023-03-26T10:45:13;7.97;;;4.20;;
12328;SDS011;6230;52.390;10.256;2023-03-26T10:48:01;10.00;;;7.00;;
12328;SDS011;6230;52.390;10.256;2023-03-26T10:53:29;9.50;;;5.67;;
12328;SDS011;6230;52.390;10.256;2023-03-26T10:58:43;6.93;;;3.93;;
12328;SDS011;6230;52.390;10.256;2023-03-26T11:01:14;6.33;;;3.97;;
12328;SDS011;6230;52.390;10.256;2023-03-26T11:03:56;7.83;;;4.93;;
12328;SDS011;6230;52.390;10.256;2023-03-26T11:17:57;7.93;;;3.53;;
12328;SDS011;6230;52.390;10.256;2023-03-26T11:20:36;8.30;;;7.63;;
12328;SDS011;6230;52.390;10.256;2023-03-26T11:23:10;13.83;;;12.53;;
12328;SDS011;6230;52.390;10.256;2023-03-26T11:28:23;7.43;;;3.83;;
12328;SDS011;6230;52.390;10.256;2023-03-26T11:34:00;10.50;;;9.50;;
12328;SDS011;6230;52.390;10.256;2023-03-26T11:36:30;8.37;;;5.20;;
12328;SDS011;6230;52.390;10.256;2023-03-26T11:39:00;12.80;;;11.60;;
12328;SDS011;6230;52.390;10.256;2023-03-26T11:41:29;9.00;;;7.80;;
12328;SDS011;6230;52.390;10.256;2023-03-26T11:43:56;9.10;;;7.63;;
12328;SDS011;6230;52.390;10.256;2023-03-26T11:46:44;7.40;;;6.37;;
12328;SDS011;6230;52.390;10.256;2023-03-26T11:49:11;9.57;;;4.17;;
12328;SDS011;6230;52.390;10.256;2023-03-26T11:51:40;6.80;;;2.83;;
12328;SDS011;6230;52.390;10.256;2023-03-26T11:54:09;3.80;;;2.37;;
12328;SDS011;6230;52.390;10.256;2023-03-26T11:56:38;5.73;;;3.13;;
12328;SDS011;6230;52.390;10.256;2023-03-26T11:59:18;6.90;;;2.70;;
12328;SDS011;6230;52.390;10.256;2023-03-26T12:01:55;7.83;;;3.80;;
12328;SDS011;6230;52.390;10.256;2023-03-26T12:04:43;7.00;;;3.13;;
12328;SDS011;6230;52.390;10.256;2023-03-26T12:07:21;7.17;;;3.97;;
12328;SDS011;6230;52.390;10.256;2023-03-26T12:09:58;4.80;;;2.97;;
12328;SDS011;6230;52.390;10.256;2023-03-26T12:12:26;5.80;;;3.03;;
12328;SDS011;6230;52.390;10.256;2023-03-26T12:14:56;8.20;;;4.53;;
12328;SDS011;6230;52.390;10.256;2023-03-26T12:17:32;6.73;;;3.23;;
12328;SDS011;6230;52.390;10.256;2023-03-26T12:20:00;5.00;;;2.60;;
12328;SDS011;6230;52.390;10.256;2023-03-26T12:22:46;7.77;;;6.53;;
12328;SDS011;6230;52.390;10.256;2023-03-26T12:25:19;9.60;;;5.27;;
12328;SDS011;6230;52.390;10.256;2023-03-26T12:27:47;7.93;;;7.23;;
12328;SDS011;6230;52.390;10.256;2023-03-26T12:30:20;6.77;;;4.80;;
12328;SDS011;6230;52.390;10.256;2023-03-26T12:32:47;12.67;;;11.37;;
12328;SDS011;6230;52.390;10.256;2023-03-26T12:35:15;9.87;;;6.40;;
12328;SDS011;6230;52.390;10.256;2023-03-26T12:37:45;8.73;;;5.20;;
12328;SDS011;6230;52.390;10.256;2023-03-26T12:43:01;9.27;;;7.67;;
12328;SDS011;6230;52.390;10.256;2023-03-26T12:45:29;9.17;;;6.40;;
12328;SDS011;6230;52.390;10.256;2023-03-26T12:48:04;9.40;;;8.47;;
12328;SDS011;6230;52.390;10.256;2023-03-26T12:50:48;10.90;;;9.90;;
12328;SDS011;6230;52.390;10.256;2023-03-26T12:56:30;11.33;;;10.33;;
12328;SDS011;6230;52.390;10.256;2023-03-26T13:12:45;9.87;;;8.67;;
12328;SDS011;6230;52.390;10.256;2023-03-26T13:15:44;9.27;;;7.37;;
12328;SDS011;6230;52.390;10.256;2023-03-26T13:18:24;10.80;;;9.77;;
12328;SDS011;6230;52.390;10.256;2023-03-26T13:20:54;7.00;;;6.20;;
12328;SDS011;6230;52.390;10.256;2023-03-26T13:29:05;11.90;;;9.23;;
12328;SDS011;6230;52.390;10.256;2023-03-26T13:31:56;11.30;;;9.43;;
12328;SDS011;6230;52.390;10.256;2023-03-26T13:42:53;10.13;;;4.80;;
12328;SDS011;6230;52.390;10.256;2023-03-26T13:48:11;8.13;;;7.33;;
12328;SDS011;6230;52.390;10.256;2023-03-26T13:50:41;10.80;;;4.70;;
12328;SDS011;6230;52.390;10.256;2023-03-26T13:53:17;9.33;;;6.73;;
12328;SDS011;6230;52.390;10.256;2023-03-26T13:55:49;9.90;;;3.87;;
12328;SDS011;6230;52.390;10.256;2023-03-26T13:58:21;7.10;;;4.37;;
12328;SDS011;6230;52.390;10.256;2023-03-26T14:01:30;10.80;;;3.80;;
12328;SDS011;6230;52.390;10.256;2023-03-26T14:04:07;6.30;;;3.43;;
12328;SDS011;6230;52.390;10.256;2023-03-26T14:07:14;8.03;;;7.23;;
12328;SDS011;6230;52.390;10.256;2023-03-26T14:09:53;7.90;;;4.10;;
12328;SDS011;6230;52.390;10.256;2023-03-26T14:15:17;14.33;;;4.83;;
12328;SDS011;6230;52.390;10.256;2023-03-26T14:17:49;10.73;;;6.57;;
12328;SDS011;6230;52.390;10.256;2023-03-26T14:20:31;9.57;;;8.83;;
12328;SDS011;6230;52.390;10.256;2023-03-26T14:31:34;11.13;;;10.00;;
12328;SDS011;6230;52.390;10.256;2023-03-26T14:42:28;12.77;;;10.93;;
12328;SDS011;6230;52.390;10.256;2023-03-26T14:45:21;10.87;;;9.87;;
12328;SDS011;6230;52.390;10.256;2023-03-26T14:48:15;10.43;;;5.23;;
12328;SDS011;6230;52.390;10.256;2023-03-26T14:51:08;8.13;;;4.10;;
12328;SDS011;6230;52.390;10.256;2023-03-26T14:53:43;10.87;;;7.40;;
12328;SDS011;6230;52.390;10.256;2023-03-26T15:04:26;8.30;;;7.27;;
12328;SDS011;6230;52.390;10.256;2023-03-26T15:07:36;10.33;;;7.93;;
12328;SDS011;6230;52.390;10.256;2023-03-26T15:12:47;11.60;;;7.67;;
12328;SDS011;6230;52.390;10.256;2023-03-26T15:15:33;13.30;;;8.97;;
12328;SDS011;6230;52.390;10.256;2023-03-26T15:21:14;11.30;;;10.30;;
12328;SDS011;6230;52.390;10.256;2023-03-26T15:26:47;11.03;;;9.47;;
12328;SDS011;6230;52.390;10.256;2023-03-26T15:46:32;8.37;;;7.10;;
12328;SDS011;6230;52.390;10.256;2023-03-26T15:51:44;11.63;;;9.30;;
12328;SDS011;6230;52.390;10.256;2023-03-26T15:54:28;8.67;;;6.00;;
12328;SDS011;6230;52.390;10.256;2023-03-26T15:57:16;6.00;;;4.30;;
12328;SDS011;6230;52.390;10.256;2023-03-26T15:59:53;8.67;;;4.70;;
12328;SDS011;6230;52.390;10.256;2023-03-26T16:07:52;9.40;;;5.23;;
12328;SDS011;6230;52.390;10.256;2023-03-26T16:10:42;8.57;;;6.57;;
12328;SDS011;6230;52.390;10.256;2023-03-26T16:18:31;10.93;;;5.17;;
12328;SDS011;6230;52.390;10.256;2023-03-26T16:26:34;6.47;;;4.63;;
12328;SDS011;6230;52.390;10.256;2023-03-26T16:29:18;8.70;;;2.50;;
12328;SDS011;6230;52.390;10.256;2023-03-26T16:34:44;9.03;;;4.17;;
12328;SDS011;6230;52.390;10.256;2023-03-26T16:50:41;5.57;;;4.83;;
12328;SDS011;6230;52.390;10.256;2023-03-26T16:59:00;6.23;;;2.73;;
12328;SDS011;6230;52.390;10.256;2023-03-26T17:01:45;7.47;;;3.53;;
12328;SDS011;6230;52.390;10.256;2023-03-26T17:04:15;7.93;;;3.00;;
12328;SDS011;6230;52.390;10.256;2023-03-26T17:06:56;11.80;;;3.00;;
12328;SDS011;6230;52.390;10.256;2023-03-26T17:12:46;8.97;;;3.70;;
12328;SDS011;6230;52.390;10.256;2023-03-26T17:15:29;6.67;;;2.80;;
12328;SDS011;6230;52.390;10.256;2023-03-26T17:20:59;11.80;;;4.10;;
12328;SDS011;6230;52.390;10.256;2023-03-26T17:23:42;10.43;;;3.20;;
12328;SDS011;6230;52.390;10.256;2023-03-26T17:26:21;8.47;;;3.13;;
12328;SDS011;6230;52.390;10.256;2023-03-26T17:42:31;11.53;;;3.67;;
12328;SDS011;6230;52.390;10.256;2023-03-26T17:45:06;13.40;;;3.30;;
12328;SDS011;6230;52.390;10.256;2023-03-26T17:47:48;9.67;;;3.37;;
12328;SDS011;6230;52.390;10.256;2023-03-26T17:50:19;12.37;;;3.17;;
12328;SDS011;6230;52.390;10.256;2023-03-26T17:55:43;10.73;;;3.90;;
12328;SDS011;6230;52.390;10.256;2023-03-26T17:58:19;11.20;;;3.10;;
12328;SDS011;6230;52.390;10.256;2023-03-26T18:01:04;14.50;;;3.57;;
12328;SDS011;6230;52.390;10.256;2023-03-26T18:03:35;14.23;;;3.87;;
12328;SDS011;6230;52.390;10.256;2023-03-26T18:06:09;8.93;;;3.43;;
12328;SDS011;6230;52.390;10.256;2023-03-26T18:08:42;9.10;;;2.97;;
12328;SDS011;6230;52.390;10.256;2023-03-26T18:14:12;11.00;;;2.67;;
12328;SDS011;6230;52.390;10.256;2023-03-26T18:16:44;10.83;;;3.90;;
12328;SDS011;6230;52.390;10.256;2023-03-26T18:19:14;14.93;;;3.90;;
12328;SDS011;6230;52.390;10.256;2023-03-26T18:21:46;11.93;;;3.13;;
12328;SDS011;6230;52.390;10.256;2023-03-26T18:24:37;13.07;;;3.47;;
12328;SDS011;6230;52.390;10.256;2023-03-26T18:27:18;13.73;;;3.47;;
12328;SDS011;6230;52.390;10.256;2023-03-26T18:32:21;13.63;;;3.93;;
12328;SDS011;6230;52.390;10.256;2023-03-26T18:34:53;9.00;;;2.80;;
12328;SDS011;6230;52.390;10.256;2023-03-26T18:37:31;12.20;;;2.97;;
12328;SDS011;6230;52.390;10.256;2023-03-26T18:42:43;12.97;;;3.17;;
12328;SDS011;6230;52.390;10.256;2023-03-26T18:47:47;10.57;;;3.30;;
12328;SDS011;6230;52.390;10.256;2023-03-26T18:50:17;12.53;;;3.53;;
12328;SDS011;6230;52.390;10.256;2023-03-26T18:52:49;15.47;;;3.60;;
12328;SDS011;6230;52.390;10.256;2023-03-26T18:55:15;11.07;;;3.13;;
12328;SDS011;6230;52.390;10.256;2023-03-26T18:57:41;13.17;;;3.57;;
12328;SDS011;6230;52.390;10.256;2023-03-26T19:00:17;17.03;;;4.03;;
12328;SDS011;6230;52.390;10.256;2023-03-26T19:02:50;14.37;;;3.10;;
12328;SDS011;6230;52.390;10.256;2023-03-26T19:05:25;17.30;;;3.77;;
12328;SDS011;6230;52.390;10.256;2023-03-26T19:07:52;11.90;;;4.50;;
12328;SDS011;6230;52.390;10.256;2023-03-26T19:10:19;14.20;;;3.43;;
12328;SDS011;6230;52.390;10.256;2023-03-26T19:12:53;9.27;;;3.07;;
12328;SDS011;6230;52.390;10.256;2023-03-26T19:15:21;11.90;;;3.67;;
12328;SDS011;6230;52.390;10.256;2023-03-26T19:17:50;13.97;;;3.57;;
12328;SDS011;6230;52.390;10.256;2023-03-26T19:20:21;14.30;;;3.70;;
12328;SDS011;6230;52.390;10.256;2023-03-26T19:22:50;10.77;;;3.30;;
12328;SDS011;6230;52.390;10.256;2023-03-26T19:25:24;12.73;;;3.40;;
12328;SDS011;6230;52.390;10.256;2023-03-26T19:27:53;13.20;;;3.50;;
12328;SDS011;6230;52.390;10.256;2023-03-26T19:30:29;16.40;;;3.40;;
12328;SDS011;6230;52.390;10.256;2023-03-26T19:33:05;11.83;;;3.07;;
12328;SDS011;6230;52.390;10.256;2023-03-26T19:35:38;15.07;;;3.80;;
12328;SDS011;6230;52.390;10.256;2023-03-26T19:38:17;9.43;;;3.47;;
12328;SDS011;6230;52.390;10.256;2023-03-26T19:40:43;10.03;;;3.10;;
12328;SDS011;6230;52.390;10.256;2023-03-26T19:43:12;10.67;;;3.23;;
12328;SDS011;6230;52.390;10.256;2023-03-26T19:45:38;10.00;;;3.27;;
12328;SDS011;6230;52.390;10.256;2023-03-26T19:48:07;11.97;;;3.13;;
12328;SDS011;6230;52.390;10.256;2023-03-26T19:50:34;9.97;;;3.60;;
12328;SDS011;6230;52.390;10.256;2023-03-26T19:53:13;12.30;;;3.60;;
12328;SDS011;6230;52.390;10.256;2023-03-26T19:56:02;10.27;;;3.63;;
12328;SDS011;6230;52.390;10.256;2023-03-26T19:58:35;10.90;;;3.00;;
12328;SDS011;6230;52.390;10.256;2023-03-26T20:01:04;15.60;;;3.47;;
12328;SDS011;6230;52.390;10.256;2023-03-26T20:03:38;15.20;;;3.67;;
12328;SDS011;6230;52.390;10.256;2023-03-26T20:06:08;15.50;;;3.90;;
12328;SDS011;6230;52.390;10.256;2023-03-26T20:08:36;13.20;;;3.73;;
12328;SDS011;6230;52.390;10.256;2023-03-26T20:11:04;13.53;;;3.13;;
12328;SDS011;6230;52.390;10.256;2023-03-26T20:13:36;10.80;;;2.90;;
12328;SDS011;6230;52.390;10.256;2023-03-26T20:16:05;12.83;;;2.50;;
12328;SDS011;6230;52.390;10.256;2023-03-26T20:18:36;12.73;;;3.33;;
12328;SDS011;6230;52.390;10.256;2023-03-26T20:21:07;10.67;;;3.03;;